Aviation Digital Data Service (ADDS)

Output produced by METARs form (1622 UTC 31 October 2014)
found at http://aviationweather.gov/adds/metars/
 
KGON 311431Z 3115/0112 04008KT P6SM BKN040 
     FM311700 08008KT P6SM BKN035 
     TEMPO 3121/0101 -RA 
     FM010100 04012KT P6SM -RA OVC025 
     FM010600 03015G20KT 5SM -RA BR OVC020